• Join FlightAware (Why Join?)
  • Login
  • US Flag 
05:06AM EDT


 

Airport Tracker/Info


-or-


 

Live Flight TrackerFlight Track Log ✈ QLK381 ✈ 18-Aug-2013 ✈ YHBA / HVB - YBBN / BNE

Flight Track Log - Related Links

Times and Time Zones

All times are in EDT time to prevent confusion due to time zone crossing. See the QLK381 flight status page for this flight to view local times or setup timezone preferences in your user account.

Time Position Orientation Groundspeed Altitude Reporting Facility
EDT Latitude Longitude Course Direction KTS MPH feet Rate Location/Type
03:49AM -25.3528 152.8348 195° South 170 196 3,200  Level Aus ATC (RADAR)
03:50AM -25.3782 152.8274 195° South 150 173 4,300 1,500 Climbing Aus ATC (RADAR)
03:51AM -25.4188 152.7960 215° Southwest 166 191 5,600 1,380 Climbing Aus ATC (RADAR)
03:52AM -25.4594 152.7621 217° Southwest 181 208 7,100 1,740 Climbing Aus ATC (RADAR)
03:53AM -25.4841 152.7410 218° Southwest 169 194 8,500 1,680 Climbing Aus ATC (RADAR)
03:53AM -25.5037 152.7235 219° Southwest 157 181 9,200 1,200 Climbing Aus ATC (RADAR)
03:54AM -25.5237 152.7080 215° Southwest 153 176 9,900 1,200 Climbing Aus ATC (RADAR)
03:54AM -25.5515 152.7087 179° South 172 198 10,600 1,080 Climbing Aus ATC (RADAR)
03:55AM -25.5788 152.7115 175° South 171 197 11,200 1,020 Climbing Aus ATC (RADAR)
03:56AM -25.6238 152.7136 178° South 178 205 12,200 1,080 Climbing Aus ATC (RADAR)
03:57AM -25.6725 152.7182 175° South 178 205 13,300 1,080 Climbing Aus ATC (RADAR)
03:58AM -25.7112 152.7175 181° South 186 214 14,100 960 Climbing Aus ATC (RADAR)
03:58AM -25.7407 152.7188 178° South 185 213 14,600 780 Climbing Aus ATC (RADAR)
03:59AM -25.7791 152.7204 178° South 186 214 15,200 240 Climbing Aus ATC (RADAR)
04:00AM -25.8341 152.7238 177° South 200 230 15,100 -60 Descending Aus ATC (RADAR)
04:01AM -25.8896 152.7249 179° South 198 228 15,100  Level Aus ATC (RADAR)
04:02AM -25.9436 152.7262 179° South 193 222 15,100  Level Aus ATC (RADAR)
04:03AM -25.9790 152.7284 177° South 192 221 15,100 60 Level Aus ATC (RADAR)
04:03AM -26.0101 152.7294 178° South 191 220 15,200  Climbing Aus ATC (RADAR)
04:04AM -26.0410 152.7307 178° South 191 220 15,100  Descending Aus ATC (RADAR)
04:04AM -26.0720 152.7320 178° South 191 220 15,200  Climbing Aus ATC (RADAR)
04:05AM -26.0984 152.7334 177° South 190 219 15,100  Descending Aus ATC (RADAR)
04:06AM -26.1522 152.7362 177° South 194 223 15,200 60 Climbing Aus ATC (RADAR)
04:06AM -26.1797 152.7379 177° South 197 227 15,200  Level Aus ATC (RADAR)
04:07AM -26.2354 152.7414 177° South 202 232 15,200 -60 Level Aus ATC (RADAR)
04:08AM -26.2719 152.7347 189° South 196 226 15,100 -120 Descending Aus ATC (RADAR)
04:09AM -26.3030 152.7260 194° South 197 227 15,100 60 Level Aus ATC (RADAR)
04:09AM -26.3344 152.7191 191° South 197 227 15,200  Climbing Aus ATC (RADAR)
04:10AM -26.3651 152.7107 194° South 195 224 15,100 -120 Descending Aus ATC (RADAR)
04:10AM -26.3963 152.7036 192° South 196 226 15,100  Level Aus ATC (RADAR)
04:11AM -26.4408 152.6918 193° South 197 227 15,100  Level Aus ATC (RADAR)
04:12AM -26.4946 152.6783 193° South 200 230 15,200  Climbing Aus ATC (RADAR)
04:13AM -26.5348 152.6677 193° South 198 228 15,100 -120 Descending Aus ATC (RADAR)
04:14AM -26.5664 152.6590 194° South 199 229 15,100  Level Aus ATC (RADAR)
04:14AM -26.5985 152.6493 195° South 203 234 15,100 60 Level Aus ATC (RADAR)
04:15AM -26.6259 152.6424 193° South 201 231 15,200 60 Climbing Aus ATC (RADAR)
04:15AM -26.6586 152.6449 176° South 209 241 15,200 -660 Level Aus ATC (RADAR)
04:16AM -26.7053 152.7037 132° Southeast 231 266 14,200 -1,080 Descending Aus ATC (RADAR)
04:17AM -26.7464 152.7634 128° Southeast 240 276 13,000 -1,260 Descending Aus ATC (RADAR)
04:18AM -26.7900 152.7890 152° Southeast 264 304 12,100 -1,560 Descending Aus ATC (RADAR)
04:19AM -26.8318 152.8120 154° Southeast 281 323 11,100 -1,680 Descending Aus ATC (RADAR)
04:19AM -26.8724 152.8361 152° Southeast 278 320 10,200 -1,560 Descending Aus ATC (RADAR)
04:20AM -26.9119 152.8597 152° Southeast 272 313 9,300 -1,560 Descending Aus ATC (RADAR)
04:20AM -26.9511 152.8836 151° Southeast 271 312 8,400 -1,440 Descending Aus ATC (RADAR)
04:21AM -27.0288 152.9330 150° Southeast 269 310 6,800 -1,440 Descending Aus ATC (RADAR)
04:22AM -27.0975 152.9650 158° South 263 303 5,400 -1,320 Descending Aus ATC (RADAR)
04:23AM -27.1445 152.9772 167° South 258 297 4,600 -1,260 Descending Aus ATC (RADAR)
04:24AM -27.1848 152.9869 168° South 251 289 3,900 -1,080 Descending Aus ATC (RADAR)
04:24AM -27.2232 152.9971 167° South 242 278 3,400 -960 Descending Aus ATC (RADAR)
04:25AM -27.2603 153.0059 168° South 232 267 2,800 -960 Descending Aus ATC (RADAR)
04:25AM -27.2948 153.0142 168° South 216 249 2,300 -600 Descending Aus ATC (RADAR)
04:26AM -27.3454 153.0248 169° South 180 207 1,900 -240 Descending Aus ATC (RADAR)
04:27AM -27.3849 153.0414 160° South 147 169 1,900 -180 Level Aus ATC (RADAR)
04:28AM -27.4053 153.0583 144° Southeast 135 155 1,600 -660 Descending Aus ATC (RADAR)
04:29AM -27.4237 153.0717 147° Southeast 131 151 1,100 -720 Descending Aus ATC (RADAR)
04:29AM -27.4371 153.0883 132° Southeast 118 136 800 -420 Descending Aus ATC (RADAR)
04:30AM -27.4305 153.1035 64° Northeast 110 127 700 -480 Descending Aus ATC (RADAR)
04:30AM -27.4131 153.1128 25° Northeast 116 133 300 -720 Descending Aus ATC (RADAR)
04:31AM -27.3925 153.1239 26° Northeast 109 125 -420 Descending Aus ATC (RADAR)